Time;durP1;ratioP1;P1;durP2;ratioP2;P2;SDS_P1;SDS_P2;PMS_P1;PMS_P2;Temp;Humidity;BMP_temperature;BMP_pressure;BME280_temperature;BME280_humidity;BME280_pressure;Samples;Min_cycle;Max_cycle;Signal;HPM_P1;HPM_P2
2021/07/31 00:07:09;;;;;;;;;;;;;;;24.80;46.68;100132.84;5019115;28;98499;-86
2021/07/31 00:09:38;;;;;;;;;;;;;;;25.17;45.63;100119.03;5019453;28;96813;-83
2021/07/31 00:12:04;;;;;;;;;;;;;;;25.04;46.05;100121.34;5018876;28;96848;-86
2021/07/31 00:14:37;;;;;;;;;;;;;;;25.13;45.38;100112.28;5018033;28;99280;-86
2021/07/31 00:17:06;;;;;;;;;;;;;;;25.29;42.98;100108.75;5018246;28;99280;-84
2021/07/31 00:19:32;;;;;;;;;;;;;;;25.46;41.81;100102.41;5014648;28;97779;-84
2021/07/31 00:21:59;;;;;;;;;;;;;;;25.44;41.31;100101.72;5026844;28;96695;-84
2021/07/31 00:24:25;;;;;;;;;;;;;;;25.47;41.65;100095.16;5029520;28;96978;-83
2021/07/31 00:26:53;;;;;;;;;;;;;;;25.42;42.06;100098.31;5018545;28;100655;-83
2021/07/31 00:29:19;;;;;;;;;;;;;;;25.37;42.22;100098.81;5018573;28;97234;-83
2021/07/31 00:31:47;;;;;;;;;;;;;;;25.47;41.45;100090.56;5016201;28;96928;-83
2021/07/31 00:34:14;;;;;;;;;;;;;;;25.49;41.69;100085.84;5012252;28;96986;-83
2021/07/31 00:36:40;;;;;;;;;;;;;;;25.42;41.96;100080.25;5004503;28;100687;-84
2021/07/31 00:39:07;;;;;;;;;;;;;;;25.46;40.71;100083.47;5017864;28;96900;-87
2021/07/31 00:41:33;;;;;;;;;;;;;;;25.43;40.68;100081.09;5019238;28;97169;-86
2021/07/31 00:44:00;;;;;;;;;;;;;;;25.50;40.46;100074.00;5020185;28;100194;-86
2021/07/31 00:46:26;;;;;;;;;;;;;;;25.52;40.21;100074.69;5020199;28;96853;-86
2021/07/31 00:48:55;;;;;;;;;;;;;;;25.34;41.14;100076.66;5034371;27;96456;-85
2021/07/31 00:51:22;;;;;;;;;;;;;;;25.37;40.63;100082.59;5032929;27;96613;-86
2021/07/31 00:53:49;;;;;;;;;;;;;;;25.35;41.47;100081.06;5027066;27;96910;-86
2021/07/31 00:56:17;;;;;;;;;;;;;;;25.28;41.21;100071.91;5020521;28;98765;-86
2021/07/31 00:58:44;;;;;;;;;;;;;;;25.25;41.04;100074.97;5009919;28;96747;-87
2021/07/31 01:01:12;;;;;;;;;;;;;;;25.25;41.14;100077.66;5030887;28;96823;-85
2021/07/31 01:03:41;;;;;;;;;;;;;;;25.22;41.24;100091.50;5034353;28;99076;-86
2021/07/31 01:06:09;;;;;;;;;;;;;;;25.30;41.27;100086.13;5027041;28;99113;-87
2021/07/31 01:08:37;;;;;;;;;;;;;;;25.25;40.98;100088.47;5035526;28;96904;-88
2021/07/31 01:11:05;;;;;;;;;;;;;;;25.29;41.34;100096.09;5028479;28;96579;-86
2021/07/31 01:13:32;;;;;;;;;;;;;;;25.27;41.58;100091.88;5027325;28;100089;-87
2021/07/31 01:15:59;;;;;;;;;;;;;;;25.35;40.93;100091.88;5026250;28;99111;-87
2021/07/31 01:18:26;;;;;;;;;;;;;;;25.35;40.98;100094.59;5013960;28;96610;-86
2021/07/31 01:20:52;;;;;;;;;;;;;;;25.30;40.87;100095.09;5002937;28;96783;-86
2021/07/31 01:23:21;;;;;;;;;;;;;;;25.24;41.25;100093.03;5012592;28;100584;-86
2021/07/31 01:25:48;;;;;;;;;;;;;;;25.27;41.05;100094.59;5018900;28;96808;-86
2021/07/31 01:28:14;;;;;;;;;;;;;;;25.36;41.25;100090.88;5004471;28;96849;-87
2021/07/31 01:30:41;;;;;;;;;;;;;;;25.36;40.67;100090.88;5015714;28;96866;-86
2021/07/31 01:33:08;;;;;;;;;;;;;;;25.34;40.80;100084.78;5005239;28;98222;-85
2021/07/31 01:35:35;;;;;;;;;;;;;;;25.56;40.58;100089.56;5025578;28;101532;-87
2021/07/31 01:38:02;;;;;;;;;;;;;;;25.52;40.58;100090.94;5034011;27;96598;-87
2021/07/31 01:40:36;;;;;;;;;;;;;;;25.45;40.49;100084.47;5035024;28;96948;-85
2021/07/31 01:43:03;;;;;;;;;;;;;;;25.44;40.40;100088.19;5031197;27;96843;-88
2021/07/31 01:45:30;;;;;;;;;;;;;;;25.59;40.03;100091.13;5028956;28;98779;-83
2021/07/31 01:47:56;;;;;;;;;;;;;;;25.59;40.21;100085.72;5025837;28;96972;-82
2021/07/31 01:50:22;;;;;;;;;;;;;;;25.57;40.19;100082.31;5024770;28;96721;-82
2021/07/31 01:52:48;;;;;;;;;;;;;;;25.66;39.89;100087.59;5014893;28;98161;-83
2021/07/31 01:55:15;;;;;;;;;;;;;;;25.62;39.79;100078.09;5014823;28;101713;-82
2021/07/31 01:57:43;;;;;;;;;;;;;;;25.45;40.21;100080.94;5004485;28;96787;-82
2021/07/31 02:00:10;;;;;;;;;;;;;;;25.45;39.82;100079.06;5011206;28;97248;-82
2021/07/31 02:02:36;;;;;;;;;;;;;;;25.45;39.60;100089.03;5011300;28;99229;-82
2021/07/31 02:05:03;;;;;;;;;;;;;;;25.56;39.57;100089.56;5010971;28;98812;-82
2021/07/31 02:07:29;;;;;;;;;;;;;;;25.46;39.49;100091.59;5011566;28;97268;-82
2021/07/31 02:09:55;;;;;;;;;;;;;;;25.41;39.57;100099.31;5011344;28;96830;-83
2021/07/31 02:12:22;;;;;;;;;;;;;;;25.36;39.95;100105.25;5004257;28;99344;-82
2021/07/31 02:14:50;;;;;;;;;;;;;;;25.14;40.16;100113.13;5012697;28;98768;-82
2021/07/31 02:17:16;;;;;;;;;;;;;;;25.25;40.08;100115.53;5011983;28;97143;-83
2021/07/31 02:19:43;;;;;;;;;;;;;;;25.17;40.11;100118.19;5008540;28;96781;-82
2021/07/31 02:22:09;;;;;;;;;;;;;;;25.02;40.43;100118.78;5013450;28;98378;-82
2021/07/31 02:24:36;;;;;;;;;;;;;;;24.86;41.21;100129.50;5015005;28;99962;-82
2021/07/31 02:27:02;;;;;;;;;;;;;;;24.79;41.42;100123.06;5015005;28;96823;-82
2021/07/31 02:29:28;;;;;;;;;;;;;;;24.63;41.59;100121.09;5016050;28;96880;-82
2021/07/31 02:31:56;;;;;;;;;;;;;;;24.15;42.95;100135.06;5011595;28;97628;-81
2021/07/31 02:34:22;;;;;;;;;;;;;;;24.47;42.45;100137.22;5014613;28;97697;-82
2021/07/31 02:36:49;;;;;;;;;;;;;;;23.87;43.60;100136.16;5010170;28;96826;-82
2021/07/31 02:39:15;;;;;;;;;;;;;;;24.35;42.67;100138.44;5011877;28;96978;-83
2021/07/31 02:41:41;;;;;;;;;;;;;;;24.35;42.54;100137.63;5023617;28;100749;-82
2021/07/31 02:44:08;;;;;;;;;;;;;;;24.18;42.43;100133.91;5035867;27;96776;-82
2021/07/31 02:46:35;;;;;;;;;;;;;;;24.32;42.14;100138.78;5033141;28;98067;-82
2021/07/31 02:49:03;;;;;;;;;;;;;;;24.41;42.07;100139.69;5035147;27;96953;-82
2021/07/31 02:51:29;;;;;;;;;;;;;;;24.34;41.67;100136.78;5037046;28;98494;-83
2021/07/31 02:53:55;;;;;;;;;;;;;;;24.63;40.98;100139.16;5037135;27;98020;-82
2021/07/31 02:56:22;;;;;;;;;;;;;;;23.84;42.77;100142.69;5019400;28;96840;-83
2021/07/31 02:58:48;;;;;;;;;;;;;;;24.25;41.86;100137.69;5010245;28;97026;-84
2021/07/31 03:01:15;;;;;;;;;;;;;;;24.10;42.13;100145.47;5004168;28;101480;-84
2021/07/31 03:03:42;;;;;;;;;;;;;;;24.11;41.97;100149.88;5017993;28;98114;-82
2021/07/31 03:06:09;;;;;;;;;;;;;;;24.66;41.13;100146.09;5017025;28;96915;-82
2021/07/31 03:08:36;;;;;;;;;;;;;;;24.68;41.01;100152.19;5016426;28;96881;-81
2021/07/31 03:11:03;;;;;;;;;;;;;;;24.92;40.09;100155.91;5014300;28;98214;-81
2021/07/31 03:13:29;;;;;;;;;;;;;;;25.03;40.15;100160.19;5011052;28;97835;-81
2021/07/31 03:15:56;;;;;;;;;;;;;;;25.06;39.60;100153.63;5014639;28;97026;-81
2021/07/31 03:18:22;;;;;;;;;;;;;;;24.48;40.84;100155.06;5015867;28;96975;-84
2021/07/31 03:20:50;;;;;;;;;;;;;;;24.69;40.54;100165.53;5016044;28;100372;-84
2021/07/31 03:23:19;;;;;;;;;;;;;;;24.61;40.59;100160.09;5015550;28;98588;-84
2021/07/31 03:25:46;;;;;;;;;;;;;;;24.25;41.41;100147.66;5015540;28;96846;-83
2021/07/31 03:28:12;;;;;;;;;;;;;;;24.36;41.06;100153.63;5013590;28;96778;-83
2021/07/31 03:30:42;;;;;;;;;;;;;;;23.76;42.20;100157.97;5013944;28;98465;-83
2021/07/31 03:33:08;;;;;;;;;;;;;;;24.08;41.87;100152.88;5015131;28;96920;-82
2021/07/31 03:35:35;;;;;;;;;;;;;;;24.29;41.61;100157.97;5014000;28;96826;-81
2021/07/31 03:38:01;;;;;;;;;;;;;;;24.18;41.64;100155.50;5010520;28;97134;-82
2021/07/31 03:40:29;;;;;;;;;;;;;;;24.00;41.74;100152.81;5015999;28;99258;-83
2021/07/31 03:42:55;;;;;;;;;;;;;;;24.26;41.40;100165.53;5019675;28;98616;-83
2021/07/31 03:45:22;;;;;;;;;;;;;;;24.34;41.17;100162.91;5029389;28;96672;-84
2021/07/31 03:47:48;;;;;;;;;;;;;;;24.42;40.90;100166.50;5022254;28;97202;-83
2021/07/31 03:50:15;;;;;;;;;;;;;;;24.00;41.76;100178.94;5018002;28;99499;-84
2021/07/31 03:52:42;;;;;;;;;;;;;;;23.66;42.31;100174.22;5017359;28;96706;-83
2021/07/31 03:55:09;;;;;;;;;;;;;;;23.55;42.53;100184.38;5014618;28;97451;-83
2021/07/31 03:57:36;;;;;;;;;;;;;;;23.84;42.01;100191.25;5014551;28;96849;-83
2021/07/31 04:00:03;;;;;;;;;;;;;;;23.79;42.29;100192.72;5014457;28;96907;-83
2021/07/31 04:02:29;;;;;;;;;;;;;;;23.95;41.58;100194.75;5015148;28;99102;-82
2021/07/31 04:04:56;;;;;;;;;;;;;;;24.06;41.48;100192.66;5011503;28;96808;-82
2021/07/31 04:07:22;;;;;;;;;;;;;;;24.31;40.97;100196.47;5012613;28;97389;-83
2021/07/31 04:09:49;;;;;;;;;;;;;;;24.54;40.42;100203.09;5007752;28;99388;-83
2021/07/31 04:12:15;;;;;;;;;;;;;;;24.39;40.71;100210.03;5012656;28;98074;-83
2021/07/31 04:14:43;;;;;;;;;;;;;;;24.23;40.81;100202.63;5015570;28;97200;-83
2021/07/31 04:17:11;;;;;;;;;;;;;;;24.57;40.51;100207.31;5015651;28;98197;-84
2021/07/31 04:19:38;;;;;;;;;;;;;;;24.79;39.67;100205.97;5015900;28;99000;-84
2021/07/31 04:22:04;;;;;;;;;;;;;;;24.85;39.58;100213.44;5015006;28;99448;-82
2021/07/31 04:24:31;;;;;;;;;;;;;;;24.65;40.11;100207.38;5016552;28;96869;-84
2021/07/31 04:26:58;;;;;;;;;;;;;;;24.35;40.30;100202.41;5025303;28;96937;-85
2021/07/31 04:29:24;;;;;;;;;;;;;;;24.51;40.34;100206.09;5034267;28;98702;-84
2021/07/31 04:31:52;;;;;;;;;;;;;;;24.87;39.67;100216.84;5035179;28;99434;-84
2021/07/31 04:34:19;;;;;;;;;;;;;;;25.04;39.03;100220.50;5033910;28;97583;-84
2021/07/31 04:36:46;;;;;;;;;;;;;;;24.55;40.22;100222.81;5035478;28;96445;-84
2021/07/31 04:39:12;;;;;;;;;;;;;;;24.73;39.47;100223.66;5032916;28;97006;-84
2021/07/31 04:41:40;;;;;;;;;;;;;;;24.60;39.90;100218.66;5002781;28;100242;-84
2021/07/31 04:44:08;;;;;;;;;;;;;;;25.05;39.28;100219.50;5016948;28;96842;-84
2021/07/31 04:46:35;;;;;;;;;;;;;;;24.96;39.21;100227.56;5010582;28;96884;-85
2021/07/31 04:49:03;;;;;;;;;;;;;;;24.88;39.55;100227.47;5004052;28;97459;-84
2021/07/31 04:51:29;;;;;;;;;;;;;;;24.89;39.24;100225.59;5011474;28;99332;-84
2021/07/31 04:53:55;;;;;;;;;;;;;;;24.82;39.55;100227.25;5013222;28;97113;-81
2021/07/31 04:56:22;;;;;;;;;;;;;;;24.60;39.79;100221.38;5016524;28;96930;-82
2021/07/31 04:58:48;;;;;;;;;;;;;;;24.96;39.35;100227.56;5013554;28;99113;-82
2021/07/31 05:01:15;;;;;;;;;;;;;;;25.07;38.91;100225.59;5013470;28;99920;-83
2021/07/31 05:03:41;;;;;;;;;;;;;;;25.32;38.42;100230.13;5013268;28;96983;-82
2021/07/31 05:06:09;;;;;;;;;;;;;;;25.02;38.74;100232.31;5015094;28;97307;-83
2021/07/31 05:08:35;;;;;;;;;;;;;;;25.10;38.91;100241.50;5008585;28;98913;-83
2021/07/31 05:11:06;;;;;;;;;;;;;;;25.29;38.03;100238.56;5014071;28;99172;-82
2021/07/31 05:13:34;;;;;;;;;;;;;;;25.54;37.51;100237.66;5008206;28;97684;-83
2021/07/31 05:16:01;;;;;;;;;;;;;;;25.74;37.38;100241.84;5013165;28;98239;-83
2021/07/31 05:18:27;;;;;;;;;;;;;;;25.64;37.30;100241.13;5001164;28;99258;-82
2021/07/31 05:20:53;;;;;;;;;;;;;;;25.80;36.84;100245.72;5003712;28;99231;-85
2021/07/31 05:23:21;;;;;;;;;;;;;;;25.44;37.32;100242.34;5011412;28;96631;-82
2021/07/31 05:25:48;;;;;;;;;;;;;;;25.24;37.72;100247.16;4999153;28;96826;-82
2021/07/31 05:28:15;;;;;;;;;;;;;;;24.99;37.92;100253.44;5013473;28;103919;-82
2021/07/31 05:30:41;;;;;;;;;;;;;;;24.83;38.41;100246.00;5032264;28;98252;-83
2021/07/31 05:33:08;;;;;;;;;;;;;;;25.48;37.38;100242.88;5027026;28;96809;-82
2021/07/31 05:35:34;;;;;;;;;;;;;;;25.68;36.99;100244.34;5021038;28;96615;-83
2021/07/31 05:38:02;;;;;;;;;;;;;;;25.73;37.11;100245.53;5015206;28;98859;-82
2021/07/31 05:40:30;;;;;;;;;;;;;;;26.16;36.54;100251.75;5010591;28;98110;-82
2021/07/31 05:42:57;;;;;;;;;;;;;;;25.84;36.63;100251.69;5012411;28;96905;-82
2021/07/31 05:45:23;;;;;;;;;;;;;;;25.96;35.95;100247.66;5017092;28;97549;-82
2021/07/31 05:47:50;;;;;;;;;;;;;;;26.32;35.80;100246.38;5021647;28;97561;-83
2021/07/31 05:50:16;;;;;;;;;;;;;;;26.14;35.80;100254.63;5024633;28;97838;-81
2021/07/31 05:52:43;;;;;;;;;;;;;;;26.15;35.83;100255.47;5032897;28;96838;-84
2021/07/31 05:55:10;;;;;;;;;;;;;;;25.17;37.29;100254.22;5035061;28;96011;-83
2021/07/31 05:57:38;;;;;;;;;;;;;;;25.43;36.63;100256.88;5035333;28;97868;-84
2021/07/31 06:00:06;;;;;;;;;;;;;;;25.42;36.67;100255.19;5039100;27;97996;-85
2021/07/31 06:02:32;;;;;;;;;;;;;;;25.74;36.17;100255.38;5037261;28;96677;-84
2021/07/31 06:04:59;;;;;;;;;;;;;;;26.09;35.83;100254.28;5030176;28;96953;-84
2021/07/31 06:07:25;;;;;;;;;;;;;;;26.36;34.87;100253.19;5018529;28;98297;-84
2021/07/31 06:09:53;;;;;;;;;;;;;;;25.93;35.28;100262.34;5024125;28;101098;-84
2021/07/31 06:12:19;;;;;;;;;;;;;;;25.91;35.84;100258.97;5016425;28;96539;-83
2021/07/31 06:14:48;;;;;;;;;;;;;;;25.24;36.96;100247.16;5014615;28;97125;-83
2021/07/31 06:17:15;;;;;;;;;;;;;;;25.41;37.04;100250.78;5003431;28;98384;-84
2021/07/31 06:19:41;;;;;;;;;;;;;;;25.96;35.57;100253.06;5019281;28;96941;-82
2021/07/31 06:22:08;;;;;;;;;;;;;;;26.54;34.24;100253.88;5018501;28;96888;-82
2021/07/31 06:24:34;;;;;;;;;;;;;;;26.69;34.02;100250.50;5020177;28;96918;-85
2021/07/31 06:27:01;;;;;;;;;;;;;;;26.74;34.01;100253.53;5022543;28;99635;-85
2021/07/31 06:29:27;;;;;;;;;;;;;;;27.18;33.27;100252.13;5033470;27;99287;-86
2021/07/31 06:31:55;;;;;;;;;;;;;;;27.29;32.99;100243.66;5025422;28;96792;-86
2021/07/31 06:34:22;;;;;;;;;;;;;;;27.36;32.59;100246.50;5019293;28;99097;-87
2021/07/31 06:36:48;;;;;;;;;;;;;;;27.41;32.46;100254.13;5020419;28;101358;-87
2021/07/31 06:39:15;;;;;;;;;;;;;;;27.62;31.66;100252.56;5022787;27;99040;-87
2021/07/31 06:41:41;;;;;;;;;;;;;;;27.28;31.64;100249.25;5019835;28;96705;-85
2021/07/31 06:44:08;;;;;;;;;;;;;;;27.22;31.57;100258.06;5009531;28;96824;-86
2021/07/31 06:46:35;;;;;;;;;;;;;;;27.43;31.32;100243.94;5007124;28;99825;-80
2021/07/31 06:49:04;;;;;;;;;;;;;;;26.76;32.50;100248.78;5013260;28;99265;-83
2021/07/31 06:51:30;;;;;;;;;;;;;;;27.39;31.31;100248.88;5008610;28;96927;-83
2021/07/31 06:53:59;;;;;;;;;;;;;;;27.28;31.28;100250.09;5015138;28;96997;-84
2021/07/31 06:56:25;;;;;;;;;;;;;;;27.26;31.09;100241.28;5013538;28;98985;-83
2021/07/31 06:58:52;;;;;;;;;;;;;;;27.31;31.25;100241.59;5010063;28;99095;-83
2021/07/31 07:01:18;;;;;;;;;;;;;;;27.76;30.51;100245.53;5013915;28;97717;-83
2021/07/31 07:03:47;;;;;;;;;;;;;;;28.07;30.45;100240.09;5014262;28;96876;-83
2021/07/31 07:06:15;;;;;;;;;;;;;;;27.93;30.54;100239.00;5014814;28;98289;-81
2021/07/31 07:08:41;;;;;;;;;;;;;;;27.40;31.00;100236.16;5011077;28;100920;-83
2021/07/31 07:11:12;;;;;;;;;;;;;;;27.69;30.70;100237.25;5016508;28;97629;-83
2021/07/31 07:13:39;;;;;;;;;;;;;;;27.97;30.31;100237.59;5014941;28;96946;-83
2021/07/31 07:16:05;;;;;;;;;;;;;;;27.90;30.16;100228.47;5014298;28;99645;-83
2021/07/31 07:18:32;;;;;;;;;;;;;;;27.73;29.89;100235.03;5015915;27;100686;-83
2021/07/31 07:21:00;;;;;;;;;;;;;;;27.76;30.27;100226.53;5010924;28;98099;-84
2021/07/31 07:23:27;;;;;;;;;;;;;;;28.04;29.67;100230.44;5012319;28;96818;-85
2021/07/31 07:25:54;;;;;;;;;;;;;;;29.13;28.50;100226.53;5015452;28;98946;-84
2021/07/31 07:28:20;;;;;;;;;;;;;;;28.96;28.55;100230.44;5013992;28;99201;-84
2021/07/31 07:30:46;;;;;;;;;;;;;;;28.93;28.86;100223.50;5016961;28;98694;-83
2021/07/31 07:33:13;;;;;;;;;;;;;;;28.95;29.02;100220.59;5023028;28;96912;-83
2021/07/31 07:35:40;;;;;;;;;;;;;;;28.93;29.05;100216.19;5019691;28;99613;-82
2021/07/31 07:38:06;;;;;;;;;;;;;;;28.97;28.94;100215.81;5017478;28;97005;-83
2021/07/31 07:40:38;;;;;;;;;;;;;;;28.88;28.42;100202.28;5014588;28;97173;-82
2021/07/31 07:43:05;;;;;;;;;;;;;;;29.00;28.62;100213.56;5014926;28;96914;-83
2021/07/31 07:45:31;;;;;;;;;;;;;;;28.88;29.27;100199.56;5000949;28;98017;-84
2021/07/31 07:47:57;;;;;;;;;;;;;;;28.47;28.06;100206.41;5015066;28;99432;-83
2021/07/31 07:50:24;;;;;;;;;;;;;;;28.44;28.21;100202.16;5013609;28;96917;-86
2021/07/31 07:52:51;;;;;;;;;;;;;;;28.00;28.57;100193.81;5025424;28;98483;-86
2021/07/31 07:55:17;;;;;;;;;;;;;;;28.18;28.59;100203.56;5024133;28;99311;-84
2021/07/31 07:57:45;;;;;;;;;;;;;;;28.50;27.50;100192.44;5016482;28;99108;-84
2021/07/31 08:00:12;;;;;;;;;;;;;;;28.67;27.86;100210.28;5015084;28;96821;-83
2021/07/31 08:02:38;;;;;;;;;;;;;;;28.41;28.15;100207.97;5015444;28;97266;-82
2021/07/31 08:05:11;;;;;;;;;;;;;;;28.04;28.62;100210.56;5013417;28;101640;-83
2021/07/31 08:07:37;;;;;;;;;;;;;;;29.07;27.50;100208.22;5010634;28;99685;-82
2021/07/31 08:10:04;;;;;;;;;;;;;;;28.49;28.41;100207.03;5010783;28;97623;-81
2021/07/31 08:12:32;;;;;;;;;;;;;;;28.17;28.34;100215.44;5025494;28;96952;-82
2021/07/31 08:14:59;;;;;;;;;;;;;;;27.99;28.05;100221.13;5012479;28;98767;-81
2021/07/31 08:17:26;;;;;;;;;;;;;;;28.47;27.42;100217.28;5011426;28;99272;-83
2021/07/31 08:19:52;;;;;;;;;;;;;;;28.03;27.86;100209.72;5003537;28;98436;-82
2021/07/31 08:22:18;;;;;;;;;;;;;;;27.20;28.81;100225.69;5012968;28;97008;-81
2021/07/31 08:24:45;;;;;;;;;;;;;;;28.10;27.79;100215.28;5013284;28;98440;-83
2021/07/31 08:27:11;;;;;;;;;;;;;;;27.85;27.77;100219.19;5011814;28;98731;-83
2021/07/31 08:29:37;;;;;;;;;;;;;;;27.86;27.94;100224.44;5011761;28;97155;-83
2021/07/31 08:32:06;;;;;;;;;;;;;;;26.04;30.73;100223.31;5011357;28;97136;-83
2021/07/31 08:34:32;;;;;;;;;;;;;;;26.34;30.44;100213.72;5009719;28;100348;-82
2021/07/31 08:37:01;;;;;;;;;;;;;;;27.69;28.79;100212.00;5015561;28;99487;-82
2021/07/31 08:39:27;;;;;;;;;;;;;;;28.26;27.72;100215.22;5006941;28;97042;-82
2021/07/31 08:41:54;;;;;;;;;;;;;;;28.48;27.42;100213.53;5017214;28;96799;-83
2021/07/31 08:44:20;;;;;;;;;;;;;;;28.26;27.76;100225.22;5008556;28;99259;-82
2021/07/31 08:46:47;;;;;;;;;;;;;;;27.61;27.93;100212.03;5015799;28;98042;-82
2021/07/31 08:49:19;;;;;;;;;;;;;;;29.27;25.91;100220.25;5008227;28;97020;-81
2021/07/31 08:51:46;;;;;;;;;;;;;;;29.62;25.39;100210.47;5019843;28;96927;-81
2021/07/31 08:54:13;;;;;;;;;;;;;;;30.22;24.71;100214.75;5020474;28;98242;-82
2021/07/31 08:56:41;;;;;;;;;;;;;;;29.80;24.91;100218.25;5022773;28;99127;-83
2021/07/31 08:59:10;;;;;;;;;;;;;;;28.71;26.41;100221.63;5017868;28;98472;-81
2021/07/31 09:01:37;;;;;;;;;;;;;;;28.11;26.97;100214.25;5013085;28;96999;-82
2021/07/31 09:04:13;;;;;;;;;;;;;;;27.53;27.82;100214.75;5019321;28;97865;-81
2021/07/31 09:06:42;;;;;;;;;;;;;;;27.28;28.50;100217.53;5022710;28;98120;-82
2021/07/31 09:09:09;;;;;;;;;;;;;;;27.80;28.01;100214.28;5025701;28;96692;-82
2021/07/31 09:11:36;;;;;;;;;;;;;;;28.67;26.95;100217.59;5016602;28;96882;-82
2021/07/31 09:14:10;;;;;;;;;;;;;;;28.17;27.53;100207.28;5009301;28;98979;-81
2021/07/31 09:16:36;;;;;;;;;;;;;;;29.18;26.54;100210.47;5024982;28;99267;-83
2021/07/31 09:19:03;;;;;;;;;;;;;;;29.68;25.64;100216.00;5029175;28;96718;-85
2021/07/31 09:21:30;;;;;;;;;;;;;;;30.19;25.28;100218.72;5018347;28;96941;-84
2021/07/31 09:23:58;;;;;;;;;;;;;;;30.88;24.91;100205.31;5011136;28;99089;-82
2021/07/31 09:26:25;;;;;;;;;;;;;;;31.13;24.99;100201.09;5009085;28;99139;-83
2021/07/31 09:29:00;;;;;;;;;;;;;;;31.05;24.34;100203.97;5002747;28;97702;-82
2021/07/31 09:31:27;;;;;;;;;;;;;;;30.61;25.16;100206.97;5008308;28;97289;-82
2021/07/31 09:33:53;;;;;;;;;;;;;;;29.46;26.71;100211.53;5003576;28;98591;-83
2021/07/31 09:36:19;;;;;;;;;;;;;;;27.93;27.94;100200.13;5011082;28;99298;-82
2021/07/31 09:38:47;;;;;;;;;;;;;;;29.07;26.88;100213.69;5032572;28;97076;-83
2021/07/31 09:41:26;;;;;;;;;;;;;;;29.14;26.38;100225.50;5009107;28;97174;-80
2021/07/31 09:44:02;;;;;;;;;;;;;;;29.56;26.36;100211.25;5007011;28;101895;-81
2021/07/31 09:46:33;;;;;;;;;;;;;;;29.89;25.70;100212.50;5014564;28;97509;-82
2021/07/31 09:49:00;;;;;;;;;;;;;;;30.15;24.95;100205.66;5022083;28;97083;-82
2021/07/31 09:51:31;;;;;;;;;;;;;;;29.98;25.67;100205.09;5016643;28;97751;-80
2021/07/31 09:53:57;;;;;;;;;;;;;;;29.91;25.57;100209.56;5005616;28;100428;-85
2021/07/31 09:56:25;;;;;;;;;;;;;;;29.08;26.43;100201.78;5011978;28;98005;-81
2021/07/31 09:58:52;;;;;;;;;;;;;;;29.10;26.14;100210.56;5012868;28;96947;-79
2021/07/31 10:01:18;;;;;;;;;;;;;;;29.58;25.86;100209.19;5010129;28;96873;-78
2021/07/31 10:03:45;;;;;;;;;;;;;;;30.19;25.30;100207.84;5006354;28;99399;-82
2021/07/31 10:06:11;;;;;;;;;;;;;;;29.79;25.60;100206.53;5007620;28;101459;-82
2021/07/31 10:08:38;;;;;;;;;;;;;;;30.23;24.56;100195.50;5010727;28;97319;-83
2021/07/31 10:11:18;;;;;;;;;;;;;;;30.17;25.36;100195.44;5025391;28;97088;-82
2021/07/31 10:13:59;;;;;;;;;;;;;;;29.86;25.52;100209.31;5026053;28;100413;-86
2021/07/31 10:16:26;;;;;;;;;;;;;;;29.50;25.97;100204.69;5022402;27;96956;-88
2021/07/31 10:18:57;;;;;;;;;;;;;;;28.85;27.23;100207.25;5038253;27;96433;-84
2021/07/31 10:21:24;;;;;;;;;;;;;;;28.87;27.45;100203.34;5036639;27;96938;-86
2021/07/31 10:23:59;;;;;;;;;;;;;;;28.89;27.41;100203.97;5025765;28;99248;-81
2021/07/31 10:26:31;;;;;;;;;;;;;;;29.55;26.54;100204.94;5025099;28;100265;-80
2021/07/31 10:29:14;;;;;;;;;;;;;;;29.76;26.26;100217.78;5012041;28;97077;-81
2021/07/31 10:31:42;;;;;;;;;;;;;;;30.10;25.20;100214.44;5012672;28;97383;-81
2021/07/31 10:34:08;;;;;;;;;;;;;;;29.73;25.88;100216.28;5014142;28;99066;-82
2021/07/31 10:36:35;;;;;;;;;;;;;;;29.11;26.42;100212.25;5014761;28;99801;-81
2021/07/31 10:39:18;;;;;;;;;;;;;;;29.08;26.77;100209.94;5019787;28;97200;-84
2021/07/31 10:41:54;;;;;;;;;;;;;;;27.67;28.93;100233.03;5013157;28;97843;-80
2021/07/31 10:44:20;;;;;;;;;;;;;;;27.77;28.82;100226.34;5011096;28;99464;-80
2021/07/31 10:46:48;;;;;;;;;;;;;;;28.54;28.18;100223.66;5011302;28;98712;-77
2021/07/31 10:49:42;;;;;;;;;;;;;;;28.46;27.85;100231.88;5013498;28;98100;-78
2021/07/31 10:52:09;;;;;;;;;;;;;;;28.89;27.24;100224.88;5007703;28;97073;-80
2021/07/31 10:55:00;;;;;;;;;;;;;;;27.97;28.82;100229.44;5010006;28;97810;-78
2021/07/31 10:57:48;;;;;;;;;;;;;;;28.31;27.92;100223.66;5024836;28;98307;-79
2021/07/31 11:00:22;;;;;;;;;;;;;;;27.80;28.95;100237.88;5012257;28;98968;-79
2021/07/31 11:05:54;;;;;;;;;;;;;;;28.08;28.52;100226.34;5010606;28;98233;-80
2021/07/31 11:08:21;;;;;;;;;;;;;;;28.65;27.72;100234.09;5014896;28;101667;-81
2021/07/31 11:10:47;;;;;;;;;;;;;;;28.66;27.45;100230.34;5010097;28;97891;-83
2021/07/31 11:13:38;;;;;;;;;;;;;;;29.24;26.56;100228.78;5004029;28;96781;-84
2021/07/31 11:16:17;;;;;;;;;;;;;;;29.20;26.84;100247.38;5023513;28;98391;-85
2021/07/31 11:24:34;;;;;;;;;;;;;;;28.40;27.19;100251.63;5037315;28;97009;-83
2021/07/31 11:27:02;;;;;;;;;;;;;;;28.26;27.39;100244.25;5016498;28;98978;-83
2021/07/31 11:29:29;;;;;;;;;;;;;;;28.95;26.75;100250.53;5014305;28;101640;-84
2021/07/31 11:32:01;;;;;;;;;;;;;;;29.05;26.32;100242.94;5012294;28;97846;-84
2021/07/31 11:34:27;;;;;;;;;;;;;;;28.67;26.91;100240.19;5021221;28;97306;-84
2021/07/31 11:37:02;;;;;;;;;;;;;;;28.60;27.27;100250.13;5028897;28;98932;-88
2021/07/31 11:39:38;;;;;;;;;;;;;;;28.76;27.11;100249.13;5038186;28;98007;-88
2021/07/31 11:42:07;;;;;;;;;;;;;;;28.46;27.18;100248.19;5021868;28;96628;-87
2021/07/31 11:44:36;;;;;;;;;;;;;;;28.41;27.66;100247.88;5020389;28;96826;-86
2021/07/31 11:50:11;;;;;;;;;;;;;;;28.20;27.49;100262.13;5070859;27;96861;-81
2021/07/31 11:52:37;;;;;;;;;;;;;;;29.20;26.34;100255.53;5052874;27;96889;-82
2021/07/31 11:55:06;;;;;;;;;;;;;;;29.08;26.39;100256.16;5056257;27;98979;-81
2021/07/31 11:57:35;;;;;;;;;;;;;;;29.08;26.45;100250.72;5033153;27;99036;-82
2021/07/31 12:00:12;;;;;;;;;;;;;;;29.03;26.85;100255.84;5056283;27;96985;-80
2021/07/31 12:06:13;;;;;;;;;;;;;;;28.84;26.83;100252.63;5051231;27;96762;-87
2021/07/31 12:08:47;;;;;;;;;;;;;;;28.58;26.78;100244.00;5060773;27;98047;-82
2021/07/31 12:11:14;;;;;;;;;;;;;;;28.15;27.59;100234.66;5055190;27;97042;-80
2021/07/31 12:13:42;;;;;;;;;;;;;;;28.36;27.21;100233.97;5070370;27;96583;-81
2021/07/31 12:16:10;;;;;;;;;;;;;;;28.54;26.87;100234.53;5059642;27;98252;-83
2021/07/31 12:18:53;;;;;;;;;;;;;;;28.47;26.57;100247.16;5060517;27;96691;-82
2021/07/31 12:21:26;;;;;;;;;;;;;;;28.34;26.43;100247.75;5060027;27;96963;-81
2021/07/31 12:23:55;;;;;;;;;;;;;;;27.47;27.54;100253.41;5059952;27;96942;-81
2021/07/31 12:26:28;;;;;;;;;;;;;;;28.47;26.73;100242.56;5041131;27;97514;-82
2021/07/31 12:28:57;;;;;;;;;;;;;;;28.35;26.73;100245.91;5063936;27;101035;-82
2021/07/31 12:31:24;;;;;;;;;;;;;;;28.56;26.88;100237.91;5064154;27;96982;-84
2021/07/31 12:33:51;;;;;;;;;;;;;;;28.68;26.66;100233.75;5066737;27;96687;-83
2021/07/31 12:36:17;;;;;;;;;;;;;;;28.10;26.70;100234.28;5071933;27;96951;-82
2021/07/31 12:38:43;;;;;;;;;;;;;;;28.89;25.89;100244.75;5072124;27;96708;-81
2021/07/31 12:41:11;;;;;;;;;;;;;;;29.36;24.99;100245.50;5064902;27;96837;-81
2021/07/31 12:43:38;;;;;;;;;;;;;;;29.80;24.57;100246.31;5063696;27;96620;-85
2021/07/31 12:46:05;;;;;;;;;;;;;;;29.48;25.40;100246.72;5055659;27;99102;-85
2021/07/31 12:48:34;;;;;;;;;;;;;;;29.30;25.46;100236.19;5048659;27;101295;-84
2021/07/31 12:51:03;;;;;;;;;;;;;;;29.64;24.96;100241.94;5040028;27;97007;-83
2021/07/31 12:53:32;;;;;;;;;;;;;;;29.32;25.11;100236.84;5050795;27;98418;-84
2021/07/31 12:55:58;;;;;;;;;;;;;;;28.52;26.09;100228.44;5051470;27;101747;-83
2021/07/31 12:58:29;;;;;;;;;;;;;;;29.85;24.69;100256.66;5055020;27;99401;-83
2021/07/31 13:00:56;;;;;;;;;;;;;;;29.95;24.35;100247.16;5043507;27;96882;-82